Map

Track Data

SID SEASON NUMBER BASIN SUBBASIN NAME ISO_TIME NATURE LAT LON WMO_WIND WMO_PRES WMO_AGENCY TRACK_TYPE DIST2LAND LANDFALL IFLAG USA_AGENCY USA_ATCF_ID USA_LAT USA_LON USA_RECORD USA_STATUS USA_WIND USA_PRES USA_SSHS USA_R34_NE USA_R34_SE USA_R34_SW USA_R34_NW USA_R50_NE USA_R50_SE USA_R50_SW USA_R50_NW USA_R64_NE USA_R64_SE USA_R64_SW USA_R64_NW USA_POCI USA_ROCI USA_RMW USA_EYE TOKYO_LAT TOKYO_LON TOKYO_GRADE TOKYO_WIND TOKYO_PRES TOKYO_R50_DIR TOKYO_R50_LONG TOKYO_R50_SHORT TOKYO_R30_DIR TOKYO_R30_LONG TOKYO_R30_SHORT TOKYO_LAND CMA_LAT CMA_LON CMA_CAT CMA_WIND CMA_PRES HKO_LAT HKO_LON HKO_CAT HKO_WIND HKO_PRES NEWDELHI_LAT NEWDELHI_LON NEWDELHI_GRADE NEWDELHI_WIND NEWDELHI_PRES NEWDELHI_CI NEWDELHI_DP NEWDELHI_POCI REUNION_LAT REUNION_LON REUNION_TYPE REUNION_WIND REUNION_PRES REUNION_TNUM REUNION_CI REUNION_RMW REUNION_R34_NE REUNION_R34_SE REUNION_R34_SW REUNION_R34_NW REUNION_R50_NE REUNION_R50_SE REUNION_R50_SW REUNION_R50_NW REUNION_R64_NE REUNION_R64_SE REUNION_R64_SW REUNION_R64_NW BOM_LAT BOM_LON BOM_TYPE BOM_WIND BOM_PRES BOM_TNUM BOM_CI BOM_RMW BOM_R34_NE BOM_R34_SE BOM_R34_SW BOM_R34_NW BOM_R50_NE BOM_R50_SE BOM_R50_SW BOM_R50_NW BOM_R64_NE BOM_R64_SE BOM_R64_SW BOM_R64_NW BOM_ROCI BOM_POCI BOM_EYE BOM_POS_METHOD BOM_PRES_METHOD NADI_LAT NADI_LON NADI_CAT NADI_WIND NADI_PRES WELLINGTON_LAT WELLINGTON_LON WELLINGTON_WIND WELLINGTON_PRES DS824_LAT DS824_LON DS824_STAGE DS824_WIND DS824_PRES TD9636_LAT TD9636_LON TD9636_STAGE TD9636_WIND TD9636_PRES TD9635_LAT TD9635_LON TD9635_WIND TD9635_PRES TD9635_ROCI NEUMANN_LAT NEUMANN_LON NEUMANN_CLASS NEUMANN_WIND NEUMANN_PRES MLC_LAT MLC_LON MLC_CLASS MLC_WIND MLC_PRES USA_GUST BOM_GUST BOM_GUST_PER REUNION_GUST REUNION_GUST_PER USA_SEAHGT USA_SEARAD_NE USA_SEARAD_SE USA_SEARAD_SW USA_SEARAD_NW STORM_SPEED STORM_DIR
1998264N10343 1998 69 NA NA JEANNE 1998-09-21 06:00:00 TS 9.60000 -17.4000 30 1008 hurdat_atl main 280 258 O_____________ hurdat_atl AL101998 9.60000 -17.4000 TD 30 1008 -1 12 324
1998264N10343 1998 69 NA NA JEANNE 1998-09-21 09:00:00 TS 10.0900 -17.7623 main 266 255 P_____________ AL101998 10.0900 -17.7623 TD 30 1007 -1 12 319
1998264N10343 1998 69 NA NA JEANNE 1998-09-21 12:00:00 TS 10.5000 -18.2000 30 1006 hurdat_atl main 261 259 O_____________ hurdat_atl AL101998 10.5000 -18.2000 TD 30 1006 -1 12 305
1998264N10343 1998 69 NA NA JEANNE 1998-09-21 15:00:00 TS 10.7800 -18.7627 main 282 282 P_____________ AL101998 10.7800 -18.7627 TD 32 1005 -1 13 293
1998264N10343 1998 69 NA NA JEANNE 1998-09-21 18:00:00 TS 11.0000 -19.4000 35 1004 hurdat_atl main 323 323 O_____________ hurdat_atl AL101998 11.0000 -19.4000 TS 35 1004 0 13 290
1998264N10343 1998 69 NA NA JEANNE 1998-09-21 21:00:00 TS 11.2423 -20.0277 main 373 373 P_____________ AL101998 11.2423 -20.0277 TS 37 1003 0 14 291
1998264N10343 1998 69 NA NA JEANNE 1998-09-22 00:00:00 TS 11.5000 -20.7000 40 1002 hurdat_atl main 436 436 O_____________ hurdat_atl AL101998 11.5000 -20.7000 TS 40 1002 0 15 292
1998264N10343 1998 69 NA NA JEANNE 1998-09-22 03:00:00 TS 11.7924 -21.4276 main 504 504 P_____________ AL101998 11.7924 -21.4276 TS 42 1001 0 16 292
1998264N10343 1998 69 NA NA JEANNE 1998-09-22 06:00:00 TS 12.1000 -22.2000 45 1000 hurdat_atl main 586 586 O_____________ hurdat_atl AL101998 12.1000 -22.2000 TS 45 1000 0 17 292
1998264N10343 1998 69 NA NA JEANNE 1998-09-22 09:00:00 TS 12.4150 -23.0075 main 648 648 P_____________ AL101998 12.4150 -23.0075 TS 50 997 0 17 291
1998264N10343 1998 69 NA NA JEANNE 1998-09-22 12:00:00 TS 12.7000 -23.8000 55 994 hurdat_atl main 716 716 O_____________ hurdat_atl AL101998 12.7000 -23.8000 TS 55 994 0 15 289
1998264N10343 1998 69 NA NA JEANNE 1998-09-22 15:00:00 TS 12.9071 -24.5079 main 782 782 P_____________ AL101998 12.9071 -24.5079 TS 60 990 0 14 286
1998264N10343 1998 69 NA NA JEANNE 1998-09-22 18:00:00 TS 13.1000 -25.2000 65 987 hurdat_atl main 850 850 O_____________ hurdat_atl AL101998 13.1000 -25.2000 HU 65 987 1 15 287
1998264N10343 1998 69 NA NA JEANNE 1998-09-22 21:00:00 TS 13.3424 -25.9500 main 930 928 P_____________ AL101998 13.3424 -25.9500 HU 67 985 1 15 289
1998264N10343 1998 69 NA NA JEANNE 1998-09-23 00:00:00 TS 13.6000 -26.7000 70 983 hurdat_atl main 999 999 O_____________ hurdat_atl AL101998 13.6000 -26.7000 HU 70 983 1 15 290
1998264N10343 1998 69 NA NA JEANNE 1998-09-23 03:00:00 TS 13.8572 -27.4076 main 1070 1070 P_____________ AL101998 13.8572 -27.4076 HU 72 981 1 15 290
1998264N10343 1998 69 NA NA JEANNE 1998-09-23 06:00:00 TS 14.1000 -28.1000 75 980 hurdat_atl main 1144 1144 O_____________ hurdat_atl AL101998 14.1000 -28.1000 HU 75 980 1 14 288
1998264N10343 1998 69 NA NA JEANNE 1998-09-23 09:00:00 TS 14.2999 -28.8077 main 1217 1217 P_____________ AL101998 14.2999 -28.8077 HU 77 977 1 14 286
1998264N10343 1998 69 NA NA JEANNE 1998-09-23 12:00:00 TS 14.5000 -29.5000 80 975 hurdat_atl main 1291 1291 O_____________ hurdat_atl AL101998 14.5000 -29.5000 HU 80 975 1 14 289
1998264N10343 1998 69 NA NA JEANNE 1998-09-23 15:00:00 TS 14.7498 -30.1575 main 1366 1366 P_____________ AL101998 14.7498 -30.1575 HU 82 974 1 14 292
1998264N10343 1998 69 NA NA JEANNE 1998-09-23 18:00:00 TS 15.0000 -30.8000 85 973 hurdat_atl main 1430 1430 O_____________ hurdat_atl AL101998 15.0000 -30.8000 HU 85 973 2 13 290
1998264N10343 1998 69 NA NA JEANNE 1998-09-23 21:00:00 TS 15.1998 -31.4503 main 1505 1505 P_____________ AL101998 15.1998 -31.4503 HU 85 972 2 13 288
1998264N10343 1998 69 NA NA JEANNE 1998-09-24 00:00:00 TS 15.4000 -32.1000 85 972 hurdat_atl main 1570 1570 O_____________ hurdat_atl AL101998 15.4000 -32.1000 HU 85 972 2 14 289
1998264N10343 1998 69 NA NA JEANNE 1998-09-24 03:00:00 TS 15.6425 -32.7725 main 1645 1645 P_____________ AL101998 15.6425 -32.7725 HU 87 971 2 14 292
1998264N10343 1998 69 NA NA JEANNE 1998-09-24 06:00:00 TS 15.9000 -33.4000 90 971 hurdat_atl main 1710 1710 O_____________ hurdat_atl AL101998 15.9000 -33.4000 HU 90 971 2 12 294
1998264N10343 1998 69 NA NA JEANNE 1998-09-24 09:00:00 TS 16.1422 -33.9228 main 1765 1765 P_____________ AL101998 16.1422 -33.9228 HU 90 970 2 11 298
1998264N10343 1998 69 NA NA JEANNE 1998-09-24 12:00:00 TS 16.4000 -34.4000 90 970 hurdat_atl main 1820 1820 O_____________ hurdat_atl AL101998 16.4000 -34.4000 HU 90 970 2 11 301
1998264N10343 1998 69 NA NA JEANNE 1998-09-24 15:00:00 TS 16.6999 -34.9075 main 1876 1876 P_____________ AL101998 16.6999 -34.9075 HU 90 969 2 11 302
1998264N10343 1998 69 NA NA JEANNE 1998-09-24 18:00:00 TS 17.0000 -35.4000 90 969 hurdat_atl main 1931 1931 O_____________ hurdat_atl AL101998 17.0000 -35.4000 HU 90 969 2 11 302
1998264N10343 1998 69 NA NA JEANNE 1998-09-24 21:00:00 TS 17.2573 -35.8577 main 1987 1987 P_____________ AL101998 17.2573 -35.8577 HU 90 970 2 10 300
1998264N10343 1998 69 NA NA JEANNE 1998-09-25 00:00:00 TS 17.5000 -36.3000 90 971 hurdat_atl main 2032 2032 O_____________ hurdat_atl AL101998 17.5000 -36.3000 HU 90 971 2 10 299
1998264N10343 1998 69 NA NA JEANNE 1998-09-25 03:00:00 TS 17.7425 -36.7651 main 2087 2087 P_____________ AL101998 17.7425 -36.7651 HU 90 972 2 10 300
1998264N10343 1998 69 NA NA JEANNE 1998-09-25 06:00:00 TS 18.0000 -37.2000 90 973 hurdat_atl main 2129 2129 O_____________ hurdat_atl AL101998 18.0000 -37.2000 HU 90 973 2 9 305
1998264N10343 1998 69 NA NA JEANNE 1998-09-25 09:00:00 TS 18.2848 -37.5652 main 2163 2162 P_____________ AL101998 18.2848 -37.5652 HU 87 974 2 9 312
1998264N10343 1998 69 NA NA JEANNE 1998-09-25 12:00:00 TS 18.6000 -37.9000 85 975 hurdat_atl main 2164 2158 O_____________ hurdat_atl AL101998 18.6000 -37.9000 HU 85 975 2 9 316
1998264N10343 1998 69 NA NA JEANNE 1998-09-25 15:00:00 TS 18.9424 -38.2426 main 2167 2167 P_____________ AL101998 18.9424 -38.2426 HU 82 976 1 10 317
1998264N10343 1998 69 NA NA JEANNE 1998-09-25 18:00:00 TS 19.3000 -38.6000 80 977 hurdat_atl main 2172 2167 O_____________ hurdat_atl AL101998 19.3000 -38.6000 HU 80 977 1 10 314
1998264N10343 1998 69 NA NA JEANNE 1998-09-25 21:00:00 TS 19.6425 -39.0076 main 2171 2171 P_____________ AL101998 19.6425 -39.0076 HU 77 978 1 10 313
1998264N10343 1998 69 NA NA JEANNE 1998-09-26 00:00:00 TS 20.0000 -39.4000 75 979 hurdat_atl main 2180 2180 O_____________ hurdat_atl AL101998 20.0000 -39.4000 HU 75 979 1 10 318
1998264N10343 1998 69 NA NA JEANNE 1998-09-26 03:00:00 TS 20.3924 -39.7152 main 2197 2197 P_____________ AL101998 20.3924 -39.7152 HU 72 981 1 10 325
1998264N10343 1998 69 NA NA JEANNE 1998-09-26 06:00:00 TS 20.8000 -40.0000 70 983 hurdat_atl main 2214 2214 O_____________ hurdat_atl AL101998 20.8000 -40.0000 HU 70 983 1 10 326
1998264N10343 1998 69 NA NA JEANNE 1998-09-26 09:00:00 TS 21.1999 -40.3002 main 2229 2229 P_____________ AL101998 21.1999 -40.3002 HU 70 983 1 10 325
1998264N10343 1998 69 NA NA JEANNE 1998-09-26 12:00:00 TS 21.6000 -40.6000 70 983 hurdat_atl main 2245 2245 O_____________ hurdat_atl AL101998 21.6000 -40.6000 HU 70 983 1 10 324
1998264N10343 1998 69 NA NA JEANNE 1998-09-26 15:00:00 TS 21.9850 -40.9151 main 2263 2263 P_____________ AL101998 21.9850 -40.9151 HU 72 981 1 10 325
1998264N10343 1998 69 NA NA JEANNE 1998-09-26 18:00:00 TS 22.4000 -41.2000 75 980 hurdat_atl main 2282 2282 O_____________ hurdat_atl AL101998 22.4000 -41.2000 HU 75 980 1 10 333
1998264N10343 1998 69 NA NA JEANNE 1998-09-26 21:00:00 TS 22.8849 -41.4152 main 2317 2317 P_____________ AL101998 22.8849 -41.4152 HU 75 980 1 11 340
1998264N10343 1998 69 NA NA JEANNE 1998-09-27 00:00:00 TS 23.4000 -41.6000 75 980 hurdat_atl main 2354 2354 O_____________ hurdat_atl AL101998 23.4000 -41.6000 HU 75 980 1 11 339
1998264N10343 1998 69 NA NA JEANNE 1998-09-27 03:00:00 TS 23.8851 -41.8446 main 2391 2386 P_____________ AL101998 23.8851 -41.8446 HU 72 981 1 11 340
1998264N10343 1998 69 NA NA JEANNE 1998-09-27 06:00:00 TS 24.4000 -42.0000 70 983 hurdat_atl main 2429 2429 O_____________ hurdat_atl AL101998 24.4000 -42.0000 HU 70 983 1 11 355
1998264N10343 1998 69 NA NA JEANNE 1998-09-27 09:00:00 TS 24.9625 -41.9528 main 2487 2487 P_____________ AL101998 24.9625 -41.9528 HU 70 983 1 12 9
1998264N10343 1998 69 NA NA JEANNE 1998-09-27 12:00:00 TS 25.6000 -41.8000 70 983 hurdat_atl main 2489 2463 O_____________ hurdat_atl AL101998 25.6000 -41.8000 HU 70 983 1 14 11
1998264N10343 1998 69 NA NA JEANNE 1998-09-27 15:00:00 TS 26.3125 -41.6574 main 2463 2401 P_____________ AL101998 26.3125 -41.6574 HU 70 983 1 15 10
1998264N10343 1998 69 NA NA JEANNE 1998-09-27 18:00:00 TS 27.1000 -41.5000 70 983 hurdat_atl main 2401 2322 O_____________ hurdat_atl AL101998 27.1000 -41.5000 HU 70 983 1 16 9
1998264N10343 1998 69 NA NA JEANNE 1998-09-27 21:00:00 TS 27.9274 -41.3644 main 2322 2238 P_____________ AL101998 27.9274 -41.3644 HU 70 983 1 17 9
1998264N10343 1998 69 NA NA JEANNE 1998-09-28 00:00:00 TS 28.8000 -41.2000 70 983 hurdat_atl main 2238 2165 O_____________ hurdat_atl AL101998 28.8000 -41.2000 HU 70 983 1 18 10
1998264N10343 1998 69 NA NA JEANNE 1998-09-28 03:00:00 TS 29.6997 -41.0088 main 2155 2078 P_____________ AL101998 29.6997 -41.0088 HU 70 983 1 19 14
1998264N10343 1998 69 NA NA JEANNE 1998-09-28 06:00:00 TS 30.6000 -40.7000 70 983 hurdat_atl main 2078 2018 O_____________ hurdat_atl AL101998 30.6000 -40.7000 HU 70 983 1 19 21
1998264N10343 1998 69 NA NA JEANNE 1998-09-28 09:00:00 TS 31.4726 -40.2027 main 2013 1965 P_____________ AL101998 31.4726 -40.2027 HU 72 981 1 19 29
1998264N10343 1998 69 NA NA JEANNE 1998-09-28 12:00:00 TS 32.3000 -39.6000 75 980 hurdat_atl main 1965 1925 O_____________ hurdat_atl AL101998 32.3000 -39.6000 HU 75 980 1 19 32
1998264N10343 1998 69 NA NA JEANNE 1998-09-28 15:00:00 TS 33.0873 -39.0069 main 1921 1890 P_____________ AL101998 33.0873 -39.0069 HU 77 978 1 18 34
1998264N10343 1998 69 NA NA JEANNE 1998-09-28 18:00:00 TS 33.8000 -38.4000 80 977 hurdat_atl main 1890 1865 O_____________ hurdat_atl AL101998 33.8000 -38.4000 HU 80 977 1 17 37
1998264N10343 1998 69 NA NA JEANNE 1998-09-28 21:00:00 TS 34.4524 -37.7846 main 1862 1852 P_____________ AL101998 34.4524 -37.7846 HU 80 977 1 16 40
1998264N10343 1998 69 NA NA JEANNE 1998-09-29 00:00:00 TS 35.0000 -37.2000 80 977 hurdat_atl main 1855 1846 O_____________ hurdat_atl AL101998 35.0000 -37.2000 HU 80 977 1 14 42
1998264N10343 1998 69 NA NA JEANNE 1998-09-29 03:00:00 TS 35.4597 -36.6768 main 1844 1844 P_____________ AL101998 35.4597 -36.6768 HU 77 978 1 11 46
1998264N10343 1998 69 NA NA JEANNE 1998-09-29 06:00:00 TS 35.8000 -36.2000 75 980 hurdat_atl main 1851 1849 O_____________ hurdat_atl AL101998 35.8000 -36.2000 HU 75 980 1 10 53
1998264N10343 1998 69 NA NA JEANNE 1998-09-29 09:00:00 TS 36.0299 -35.7268 main 1866 1858 P_____________ AL101998 36.0299 -35.7268 HU 70 982 1 8 61
1998264N10343 1998 69 NA NA JEANNE 1998-09-29 12:00:00 TS 36.2000 -35.3000 65 985 hurdat_atl main 1876 1874 O_____________ hurdat_atl AL101998 36.2000 -35.3000 HU 65 985 1 7 58
1998264N10343 1998 69 NA NA JEANNE 1998-09-29 15:00:00 TS 36.4068 -34.9721 main 1880 1878 P_____________ AL101998 36.4068 -34.9721 HU 62 987 0 7 55
1998264N10343 1998 69 NA NA JEANNE 1998-09-29 18:00:00 TS 36.6000 -34.6000 60 990 hurdat_atl main 1890 1866 O_____________ hurdat_atl AL101998 36.6000 -34.6000 TS 60 990 0 8 65
1998264N10343 1998 69 NA NA JEANNE 1998-09-29 21:00:00 TS 36.7576 -34.0448 main 1863 1820 P_____________ AL101998 36.7576 -34.0448 TS 55 993 0 10 73
1998264N10343 1998 69 NA NA JEANNE 1998-09-30 00:00:00 TS 36.9000 -33.4000 50 997 hurdat_atl main 1820 1778 O_____________ hurdat_atl AL101998 36.9000 -33.4000 TS 50 997 0 11 74
1998264N10343 1998 69 NA NA JEANNE 1998-09-30 03:00:00 TS 37.0421 -32.7645 main 1778 1735 P_____________ AL101998 37.0421 -32.7645 TS 47 998 0 11 74
1998264N10343 1998 69 NA NA JEANNE 1998-09-30 06:00:00 TS 37.2000 -32.1000 45 1000 hurdat_atl main 1735 1694 O_____________ hurdat_atl AL101998 37.2000 -32.1000 TS 45 1000 0 11 72
1998264N10343 1998 69 NA NA JEANNE 1998-09-30 09:00:00 TS 37.3923 -31.3999 main 1694 1655 P_____________ AL101998 37.3923 -31.3999 TS 42 1001 0 12 70
1998264N10343 1998 69 NA NA JEANNE 1998-09-30 12:00:00 TS 37.6000 -30.7000 40 1002 hurdat_atl main 1655 1625 O_____________ hurdat_atl AL101998 37.6000 -30.7000 TS 40 1002 0 11 68
1998264N10343 1998 69 NA NA JEANNE 1998-09-30 15:00:00 TS 37.8144 -30.0499 main 1618 1591 P_____________ AL101998 37.8144 -30.0499 TS 37 1004 0 11 69
1998264N10343 1998 69 NA NA JEANNE 1998-09-30 18:00:00 TS 38.0000 -29.4000 35 1006 hurdat_atl main 1591 1558 O_____________ hurdat_atl AL101998 38.0000 -29.4000 TS 35 1006 0 11 74
1998264N10343 1998 69 NA NA JEANNE 1998-09-30 21:00:00 TS 38.1218 -28.7296 main 1551 1513 P_____________ AL101998 38.1218 -28.7296 TS 32 1007 -1 11 80
1998264N10343 1998 69 NA NA JEANNE 1998-10-01 00:00:00 ET 38.2000 -28.0000 30 1008 hurdat_atl main 1513 1464 O_____________ hurdat_atl AL101998 38.2000 -28.0000 EX 30 1008 -4 12 84
1998264N10343 1998 69 NA NA JEANNE 1998-10-01 03:00:00 ET 38.2497 -27.1794 main 1464 1419 P_____________ AL101998 38.2497 -27.1794 EX 30 1008 -4 13 86
1998264N10343 1998 69 NA NA JEANNE 1998-10-01 06:00:00 ET 38.3000 -26.3000 30 1008 hurdat_atl main 1419 1383 O_____________ hurdat_atl AL101998 38.3000 -26.3000 EX 30 1008 -4 14 84
1998264N10343 1998 69 NA NA JEANNE 1998-10-01 09:00:00 ET 38.3916 -25.4225 main 1376 1306 P_____________ AL101998 38.3916 -25.4225 EX 32 1007 -4 14 82
1998264N10343 1998 69 NA NA JEANNE 1998-10-01 12:00:00 ET 38.5000 -24.5000 35 1006 hurdat_atl main 1297 1210 O_____________ hurdat_atl AL101998 38.5000 -24.5000 EX 35 1006 -4 15 82
1998264N10343 1998 69 NA NA JEANNE 1998-10-01 15:00:00 ET 38.6079 -23.4777 main 1210 1123 P_____________ AL101998 38.6079 -23.4777 EX 35 1005 -4 16 83
1998264N10343 1998 69 NA NA JEANNE 1998-10-01 18:00:00 ET 38.7000 -22.5000 35 1005 hurdat_atl main 1123 1062 O_____________ hurdat_atl AL101998 38.7000 -22.5000 EX 35 1005 -4 14 84
1998264N10343 1998 69 NA NA JEANNE 1998-10-01 21:00:00 ET 38.7562 -21.7121 main 1053 993 P_____________ AL101998 38.7562 -21.7121 EX 35 1004 -4 12 85
1998264N10343 1998 69 NA NA JEANNE 1998-10-02 00:00:00 ET 38.8000 -21.0000 35 1003 hurdat_atl main 993 932 O_____________ hurdat_atl AL101998 38.8000 -21.0000 EX 35 1003 -4 12 85
1998264N10343 1998 69 NA NA JEANNE 1998-10-02 03:00:00 ET 38.8498 -20.2349 main 924 863 P_____________ AL101998 38.8498 -20.2349 EX 35 1003 -4 12 85
1998264N10343 1998 69 NA NA JEANNE 1998-10-02 06:00:00 ET 38.9000 -19.5000 35 1003 hurdat_atl main 863 811 O_____________ hurdat_atl AL101998 38.9000 -19.5000 EX 35 1003 -4 11 84
1998264N10343 1998 69 NA NA JEANNE 1998-10-02 09:00:00 ET 38.9567 -18.8426 main 802 750 P_____________ AL101998 38.9567 -18.8426 EX 37 1003 -4 10 84
1998264N10343 1998 69 NA NA JEANNE 1998-10-02 12:00:00 ET 39.0000 -18.2000 40 1003 hurdat_atl main 750 690 O_____________ hurdat_atl AL101998 39.0000 -18.2000 EX 40 1003 -4 10 87
1998264N10343 1998 69 NA NA JEANNE 1998-10-02 15:00:00 ET 39.0073 -17.4998 main 690 630 P_____________ AL101998 39.0073 -17.4998 EX 40 1003 -4 11 90
1998264N10343 1998 69 NA NA JEANNE 1998-10-02 18:00:00 ET 39.0000 -16.8000 40 1003 hurdat_atl main 630 578 O_____________ hurdat_atl AL101998 39.0000 -16.8000 EX 40 1003 -4 11 90
1998264N10343 1998 69 NA NA JEANNE 1998-10-02 21:00:00 ET 38.9996 -16.1350 main 569 518 P_____________ AL101998 38.9996 -16.1350 EX 40 1003 -4 10 90
1998264N10343 1998 69 NA NA JEANNE 1998-10-03 00:00:00 ET 39.0000 -15.5000 40 1003 hurdat_atl main 518 466 O_____________ hurdat_atl AL101998 39.0000 -15.5000 EX 40 1003 -4 10 90
1998264N10343 1998 69 NA NA JEANNE 1998-10-03 03:00:00 ET 38.9995 -14.9000 main 466 414 P_____________ AL101998 38.9995 -14.9000 EX 40 1003 -4 9 90
1998264N10343 1998 69 NA NA JEANNE 1998-10-03 06:00:00 ET 39.0000 -14.3000 40 1003 hurdat_atl main 414 363 O_____________ hurdat_atl AL101998 39.0000 -14.3000 EX 40 1003 -4 9 90
1998264N10343 1998 69 NA NA JEANNE 1998-10-03 09:00:00 ET 38.9987 -13.7100 main 363 302 P_____________ AL101998 38.9987 -13.7100 EX 40 1003 -4 10 90
1998264N10343 1998 69 NA NA JEANNE 1998-10-03 12:00:00 ET 39.0000 -13.0000 40 1003 hurdat_atl main 302 225 O_____________ hurdat_atl AL101998 39.0000 -13.0000 EX 40 1003 -4 13 90
1998264N10343 1998 69 NA NA JEANNE 1998-10-03 15:00:00 ET 38.9928 -12.0521 main 225 139 P_____________ AL101998 38.9928 -12.0521 EX 37 1003 -4 16 90
1998264N10343 1998 69 NA NA JEANNE 1998-10-03 18:00:00 ET 39.0000 -11.0000 35 1003 hurdat_atl main 131 56 O_____________ hurdat_atl AL101998 39.0000 -11.0000 EX 35 1003 -4 16 89
1998264N10343 1998 69 NA NA JEANNE 1998-10-03 21:00:00 ET 39.0342 -9.99986 main 48 0 P_____________ AL101998 39.0342 -9.99986 EX 32 1003 -4 16 86
1998264N10343 1998 69 NA NA JEANNE 1998-10-04 00:00:00 ET 39.1000 -9.00000 30 1003 hurdat_atl main 0 0 O_____________ hurdat_atl AL101998 39.1000 -9.00000 EX 30 1003 -4 16 84
1998264N10343 1998 69 NA NA JEANNE 1998-10-04 03:00:00 ET 39.1917 -8.00004 main 0 0 P_____________ AL101998 39.1917 -8.00004 EX 30 1003 -4 16 83
1998264N10343 1998 69 NA NA JEANNE 1998-10-04 06:00:00 ET 39.3000 -7.00000 30 1004 hurdat_atl main 0 0 O_____________ hurdat_atl AL101998 39.3000 -7.00000 EX 30 1004 -4 16 82
1998264N10343 1998 69 NA NA JEANNE 1998-10-04 09:00:00 ET 39.4042 -6.00043 main 0 0 P_____________ AL101998 39.4042 -6.00043 EX 27 1004 -4 16 83
1998264N10343 1998 69 NA NA JEANNE 1998-10-04 12:00:00 ET 39.5000 -5.00000 25 1004 hurdat_atl main 0 O_____________ hurdat_atl AL101998 39.5000 -5.00000 EX 25 1004 -4 16 83

About IBTrACS Database

This database is a web-friendly format of International Best Track Archive for Climate Stewardship (IBTrACS), a global best track data archive curated by NOAA dating back to 1842.

Updated: 2021-12-06